createdAt,value
2019-04-20T00:00:02.690Z,15.62
2019-04-20T00:02:31.687Z,15.61
2019-04-20T00:05:01.267Z,15.56
2019-04-20T00:07:34.376Z,15.53
2019-04-20T00:10:08.704Z,15.51
2019-04-20T00:12:48.680Z,15.47
2019-04-20T00:15:07.073Z,15.40
2019-04-20T00:17:39.357Z,15.38
2019-04-20T00:20:13.443Z,15.37
2019-04-20T00:22:58.345Z,15.32
2019-04-20T00:25:57.836Z,15.27
2019-04-20T00:28:35.160Z,15.25
2019-04-20T00:31:09.620Z,15.28
2019-04-20T00:33:38.853Z,15.24
2019-04-20T00:35:54.849Z,15.15
2019-04-20T00:38:27.998Z,15.09
2019-04-20T00:41:02.165Z,15.05
2019-04-20T00:43:32.141Z,15.03
2019-04-20T00:46:06.697Z,14.97
2019-04-20T00:48:38.950Z,14.92
2019-04-20T00:51:23.898Z,14.90
2019-04-20T00:53:39.635Z,14.87
2019-04-20T00:56:03.889Z,14.84
2019-04-20T00:58:48.347Z,14.86
2019-04-20T01:01:25.208Z,14.82
2019-04-20T01:03:49.685Z,14.75
2019-04-20T01:06:41.178Z,14.70
2019-04-20T01:08:57.077Z,14.67
2019-04-20T01:11:33.228Z,14.57
2019-04-20T01:14:03.058Z,14.48
2019-04-20T01:16:41.203Z,14.41
2019-04-20T01:19:01.111Z,14.36
2019-04-20T01:21:33.461Z,14.33
2019-04-20T01:24:06.282Z,14.32
2019-04-20T01:26:36.467Z,14.33
2019-04-20T01:29:16.731Z,14.30
2019-04-20T01:31:49.616Z,14.27
2019-04-20T01:34:25.211Z,14.22
2019-04-20T01:36:55.660Z,14.13
2019-04-20T01:39:22.141Z,14.09
2019-04-20T01:41:41.481Z,14.14
2019-04-20T01:44:11.222Z,14.10
2019-04-20T01:46:46.656Z,14.04
2019-04-20T01:49:20.207Z,13.96
2019-04-20T01:51:54.426Z,13.95
2019-04-20T01:54:32.676Z,13.95
2019-04-20T01:56:59.230Z,13.91
2019-04-20T01:59:34.514Z,13.88
2019-04-20T02:02:14.053Z,13.87
2019-04-20T02:04:45.971Z,13.82
2019-04-20T02:07:13.550Z,13.76
2019-04-20T02:09:49.951Z,13.75
2019-04-20T02:12:21.885Z,13.72
2019-04-20T02:14:53.651Z,13.64
2019-04-20T02:17:28.361Z,13.58
2019-04-20T02:20:14.405Z,13.54
2019-04-20T02:22:38.362Z,13.52
2019-04-20T02:24:51.294Z,13.49
2019-04-20T02:27:29.957Z,13.48
2019-04-20T02:30:22.052Z,13.43
2019-04-20T02:32:58.888Z,13.43
2019-04-20T02:35:34.639Z,13.36
2019-04-20T02:40:47.567Z,13.31
2019-04-20T02:43:07.884Z,13.29
2019-04-20T02:48:13.508Z,13.25
2019-04-20T02:50:43.280Z,13.24
2019-04-20T02:53:20.309Z,13.19
2019-04-20T02:55:48.157Z,13.13
2019-04-20T02:58:14.884Z,13.09
2019-04-20T03:00:39.668Z,13.03
2019-04-20T03:03:03.210Z,13.01
2019-04-20T03:05:33.149Z,12.93
2019-04-20T03:10:56.736Z,13.02
2019-04-20T03:13:19.838Z,12.95
2019-04-20T03:15:51.903Z,12.91
2019-04-20T03:18:19.661Z,12.88
2019-04-20T03:20:54.986Z,12.91
2019-04-20T03:26:12.777Z,13.02
2019-04-20T03:29:00.212Z,13.01
2019-04-20T03:32:22.222Z,13.01
2019-04-20T03:34:47.435Z,12.90
2019-04-20T03:36:59.449Z,12.78
2019-04-20T03:39:23.261Z,12.68
2019-04-20T03:41:43.442Z,12.60
2019-04-20T03:44:14.156Z,12.56
2019-04-20T03:46:47.953Z,12.51
2019-04-20T03:49:38.053Z,12.48
2019-04-20T03:52:03.950Z,12.51
2019-04-20T03:54:34.722Z,12.56
2019-04-20T03:57:24.268Z,12.51
2019-04-20T04:00:00.647Z,12.46
2019-04-20T04:05:22.259Z,12.39
2019-04-20T04:07:38.680Z,12.33
2019-04-20T04:10:18.408Z,12.31
2019-04-20T04:13:15.021Z,12.26
2019-04-20T04:15:51.926Z,12.27
2019-04-20T04:18:27.984Z,12.25
2019-04-20T04:20:59.423Z,12.16
2019-04-20T04:23:40.954Z,12.17
2019-04-20T04:26:29.264Z,12.19
2019-04-20T04:28:41.191Z,12.18
2019-04-20T04:31:18.744Z,12.21
2019-04-20T04:36:13.538Z,12.23
2019-04-20T04:38:56.131Z,12.26
2019-04-20T04:41:24.211Z,12.29
2019-04-20T04:43:54.205Z,12.32
2019-04-20T04:46:05.953Z,12.37
2019-04-20T04:48:40.413Z,12.40
2019-04-20T04:51:13.626Z,12.51
2019-04-20T04:53:47.846Z,12.65
2019-04-20T04:56:16.073Z,12.76
2019-04-20T04:58:40.838Z,12.80
2019-04-20T05:01:16.612Z,12.81
2019-04-20T05:04:05.577Z,12.81
2019-04-20T05:06:31.774Z,12.86
2019-04-20T05:08:51.437Z,12.92
2019-04-20T05:11:17.418Z,12.97
2019-04-20T05:13:54.613Z,12.99
2019-04-20T05:16:38.533Z,13.04
2019-04-20T05:19:13.313Z,13.12
2019-04-20T05:21:55.223Z,13.16
2019-04-20T05:24:25.581Z,13.20
2019-04-20T05:27:08.726Z,13.28
2019-04-20T05:29:22.515Z,13.37
2019-04-20T05:31:53.783Z,13.46
2019-04-20T05:34:40.076Z,13.57
2019-04-20T05:37:17.722Z,13.70
2019-04-20T05:39:44.733Z,13.80
2019-04-20T05:42:19.132Z,13.89
2019-04-20T05:44:45.588Z,14.00
2019-04-20T05:47:19.924Z,14.09
2019-04-20T05:49:48.433Z,14.19
2019-04-20T05:52:31.298Z,14.29
2019-04-20T05:54:51.396Z,14.38
2019-04-20T05:57:25.027Z,14.47
2019-04-20T06:00:02.192Z,14.58
2019-04-20T06:02:29.419Z,14.65
2019-04-20T06:07:34.229Z,14.81
2019-04-20T06:10:05.790Z,14.93
2019-04-20T06:12:34.414Z,15.05
2019-04-20T06:15:13.262Z,15.14
2019-04-20T06:18:02.710Z,15.22
2019-04-20T06:20:41.206Z,15.36
2019-04-20T06:23:41.543Z,15.52
2019-04-20T06:26:21.403Z,15.61
2019-04-20T06:28:29.973Z,15.71
2019-04-20T06:31:11.332Z,15.84
2019-04-20T06:34:30.391Z,15.91
2019-04-20T06:39:24.117Z,16.31
2019-04-20T06:44:30.595Z,17.07
2019-04-20T06:47:05.583Z,17.07
2019-04-20T06:49:28.903Z,17.08
2019-04-20T06:51:58.687Z,17.16
2019-04-20T06:54:36.117Z,17.29
2019-04-20T06:57:07.427Z,17.53
2019-04-20T06:59:47.705Z,17.86
2019-04-20T07:02:18.353Z,18.11
2019-04-20T07:04:50.472Z,18.33
2019-04-20T07:07:15.639Z,18.45
2019-04-20T07:09:55.885Z,18.55
2019-04-20T07:12:13.104Z,18.83
2019-04-20T07:14:36.684Z,19.10
2019-04-20T07:17:29.824Z,19.34
2019-04-20T07:19:51.738Z,19.58
2019-04-20T07:22:32.148Z,19.84
2019-04-20T07:24:56.488Z,20.05
2019-04-20T07:27:29.527Z,20.27
2019-04-20T07:29:58.962Z,20.45
2019-04-20T07:32:23.341Z,20.61
2019-04-20T07:35:03.310Z,20.78
2019-04-20T07:38:04.640Z,21.02
2019-04-20T07:40:07.510Z,21.11
2019-04-20T07:42:40.786Z,21.30
2019-04-20T07:45:16.847Z,21.40
2019-04-20T07:50:09.321Z,21.87
2019-04-20T07:52:33.746Z,22.48
2019-04-20T07:57:45.970Z,23.78
2019-04-20T08:00:21.328Z,24.30
2019-04-20T08:03:12.456Z,24.87
2019-04-20T08:05:46.765Z,25.56
2019-04-20T08:08:23.972Z,26.48
2019-04-20T08:10:53.689Z,27.27
2019-04-20T08:13:39.015Z,27.63
2019-04-20T08:16:00.758Z,28.20
2019-04-20T08:18:32.217Z,28.42
2019-04-20T08:21:02.693Z,28.75
2019-04-20T08:23:33.608Z,29.64
2019-04-20T08:25:53.227Z,30.23
2019-04-20T08:28:29.147Z,30.56
2019-04-20T08:31:08.851Z,30.58
2019-04-20T08:33:55.114Z,29.33
2019-04-20T08:36:23.148Z,30.03
2019-04-20T08:41:23.265Z,32.53
2019-04-20T08:46:26.330Z,33.83
2019-04-20T08:48:55.890Z,34.51
2019-04-20T08:51:39.264Z,35.30
2019-04-20T08:53:56.999Z,35.54
2019-04-20T08:56:24.637Z,35.96
2019-04-20T08:58:43.509Z,36.55
2019-04-20T09:01:20.233Z,37.34
2019-04-20T09:03:56.450Z,37.83
2019-04-20T09:06:32.264Z,38.27
2019-04-20T09:09:01.631Z,38.32
2019-04-20T09:11:44.136Z,38.35
2019-04-20T09:13:55.889Z,38.40
2019-04-20T09:16:37.087Z,39.30
2019-04-20T09:19:04.676Z,39.78
2019-04-20T09:21:40.297Z,40.00
2019-04-20T09:24:29.992Z,39.09
2019-04-20T09:26:47.496Z,39.27
2019-04-20T09:29:17.074Z,39.64
2019-04-20T09:31:47.253Z,40.90
2019-04-20T09:34:33.687Z,41.66
2019-04-20T09:37:21.465Z,41.98
2019-04-20T09:39:44.952Z,42.43
2019-04-20T09:42:06.806Z,43.07
2019-04-20T09:44:41.031Z,43.41
2019-04-20T09:47:10.533Z,43.38
2019-04-20T09:49:54.092Z,44.08
2019-04-20T09:52:21.220Z,44.41
2019-04-20T09:54:58.961Z,45.09
2019-04-20T09:57:33.892Z,45.06
2019-04-20T10:00:01.717Z,45.05
2019-04-20T10:02:23.362Z,45.09
2019-04-20T10:04:47.402Z,45.15
2019-04-20T10:07:21.371Z,46.04
2019-04-20T10:09:49.064Z,46.73
2019-04-20T10:12:19.853Z,46.72
2019-04-20T10:14:49.461Z,47.17
2019-04-20T10:17:20.186Z,48.20
2019-04-20T10:19:51.305Z,48.78
2019-04-20T10:22:22.456Z,47.73
2019-04-20T10:24:53.810Z,49.11
2019-04-20T10:27:24.305Z,49.10
2019-04-20T10:29:53.953Z,49.36
2019-04-20T10:32:29.945Z,50.34
2019-04-20T10:34:56.748Z,50.63
2019-04-20T10:37:29.366Z,50.94
2019-04-20T10:39:59.053Z,51.29
2019-04-20T10:42:32.208Z,51.55
2019-04-20T10:45:02.876Z,52.10
2019-04-20T10:47:33.313Z,52.66
2019-04-20T10:50:04.932Z,52.72
2019-04-20T10:52:35.973Z,52.54
2019-04-20T10:55:08.395Z,52.39
2019-04-20T10:57:38.061Z,53.28
2019-04-20T11:00:11.780Z,53.18
2019-04-20T11:02:44.640Z,53.62
2019-04-20T11:05:14.714Z,53.86
2019-04-20T11:07:44.415Z,53.44
2019-04-20T11:10:21.485Z,53.84
2019-04-20T11:12:46.366Z,54.54
2019-04-20T11:15:16.547Z,54.59
2019-04-20T11:17:49.136Z,54.67
2019-04-20T11:20:19.305Z,54.24
2019-04-20T11:22:48.902Z,54.36
2019-04-20T11:25:19.942Z,54.34
2019-04-20T11:27:50.114Z,54.98
2019-04-20T11:30:22.486Z,55.31
2019-04-20T11:32:52.320Z,54.74
2019-04-20T11:35:30.635Z,55.20
2019-04-20T11:37:55.463Z,55.29
2019-04-20T11:40:25.058Z,55.71
2019-04-20T11:42:55.389Z,55.83
2019-04-20T11:45:25.063Z,56.11
2019-04-20T11:47:55.770Z,56.76
2019-04-20T11:50:27.484Z,57.27
2019-04-20T11:52:57.296Z,57.19
2019-04-20T11:55:27.020Z,57.28
2019-04-20T11:57:56.664Z,57.19
2019-04-20T12:00:53.872Z,57.39
2019-04-20T12:03:30.025Z,58.06
2019-04-20T12:05:57.332Z,57.56
2019-04-20T12:08:27.064Z,57.51
2019-04-20T12:11:00.377Z,57.07
2019-04-20T12:13:28.977Z,56.55
2019-04-20T12:15:59.351Z,56.24
2019-04-20T12:18:29.553Z,55.95
2019-04-20T12:21:00.836Z,55.67
2019-04-20T12:23:30.711Z,56.10
2019-04-20T12:26:02.421Z,55.53
2019-04-20T12:28:33.693Z,54.95
2019-04-20T12:31:12.949Z,54.18
2019-04-20T12:33:37.716Z,53.96
2019-04-20T12:36:10.132Z,54.67
2019-04-20T12:38:41.212Z,54.97
2019-04-20T12:41:12.561Z,54.85
2019-04-20T12:43:43.520Z,55.53
2019-04-20T12:46:17.894Z,56.64
2019-04-20T12:48:45.130Z,57.18
2019-04-20T12:51:15.579Z,57.91
2019-04-20T12:53:46.568Z,56.68
2019-04-20T12:56:16.942Z,57.57
2019-04-20T12:58:47.370Z,57.56
2019-04-20T13:01:21.057Z,57.36
2019-04-20T13:03:49.739Z,57.09
2019-04-20T13:06:19.669Z,56.54
2019-04-20T13:08:54.808Z,55.83
2019-04-20T13:11:32.070Z,53.96
2019-04-20T13:14:34.720Z,53.04
2019-04-20T13:17:04.367Z,52.43
2019-04-20T13:19:35.162Z,52.15
2019-04-20T13:22:05.280Z,52.64
2019-04-20T13:24:34.954Z,53.72
2019-04-20T13:27:04.840Z,55.26
2019-04-20T13:29:35.129Z,55.59
2019-04-20T13:32:05.486Z,54.94
2019-04-20T13:34:36.095Z,54.02
2019-04-20T13:37:06.382Z,54.00
2019-04-20T13:39:36.146Z,55.35
2019-04-20T13:42:13.402Z,55.53
2019-04-20T13:44:37.162Z,54.26
2019-04-20T13:47:07.253Z,54.07
2019-04-20T13:49:38.753Z,54.97
2019-04-20T13:52:08.788Z,55.84
2019-04-20T13:54:39.746Z,55.89
2019-04-20T13:57:11.399Z,56.60
2019-04-20T13:59:46.137Z,55.92
2019-04-20T14:02:15.514Z,55.20
2019-04-20T14:04:48.583Z,54.39
2019-04-20T14:07:20.198Z,53.70
2019-04-20T14:09:51.181Z,54.01
2019-04-20T14:12:29.658Z,54.70
2019-04-20T14:14:53.151Z,54.42
2019-04-20T14:17:23.427Z,54.11
2019-04-20T14:19:53.262Z,54.36
2019-04-20T14:22:23.100Z,54.92
2019-04-20T14:24:53.248Z,54.84
2019-04-20T14:27:24.554Z,54.03
2019-04-20T14:29:55.105Z,53.95
2019-04-20T14:32:25.023Z,54.24
2019-04-20T14:34:54.656Z,54.10
2019-04-20T14:37:24.682Z,53.17
2019-04-20T14:39:54.518Z,53.38
2019-04-20T14:42:35.099Z,53.20
2019-04-20T14:44:55.599Z,50.77
2019-04-20T14:47:25.648Z,46.33
2019-04-20T14:49:58.322Z,41.91
2019-04-20T14:52:27.779Z,38.12
2019-04-20T14:54:57.634Z,35.77
2019-04-20T14:57:27.614Z,34.01
2019-04-20T15:00:15.397Z,32.63
2019-04-20T15:02:45.849Z,31.86
2019-04-20T15:05:16.995Z,31.09
2019-04-20T15:07:46.833Z,30.64
2019-04-20T15:10:16.629Z,30.23
2019-04-20T15:12:52.863Z,29.76
2019-04-20T15:15:18.746Z,29.47
2019-04-20T15:17:55.964Z,29.09
2019-04-20T15:20:25.606Z,28.89
2019-04-20T15:22:57.179Z,28.60
2019-04-20T15:25:27.450Z,28.37
2019-04-20T15:27:58.121Z,28.25
2019-04-20T15:30:29.719Z,28.00
2019-04-20T15:33:00.985Z,27.85
2019-04-20T15:35:30.685Z,27.80
2019-04-20T15:38:00.264Z,27.77
2019-04-20T15:40:31.038Z,27.76
2019-04-20T15:43:08.340Z,27.71
2019-04-20T15:45:33.539Z,27.69
2019-04-20T15:48:03.822Z,27.58
2019-04-20T15:50:33.908Z,27.42
2019-04-20T15:53:05.780Z,27.31
2019-04-20T15:55:39.458Z,27.27
2019-04-20T15:58:08.324Z,27.19
2019-04-20T16:00:38.339Z,27.14
2019-04-20T16:03:09.698Z,27.04
2019-04-20T16:05:56.687Z,26.91
2019-04-20T16:08:39.697Z,26.74
2019-04-20T16:11:11.097Z,26.65
2019-04-20T16:13:44.672Z,26.57
2019-04-20T16:16:12.669Z,26.53
2019-04-20T16:18:45.187Z,26.49
2019-04-20T16:21:21.873Z,26.42
2019-04-20T16:23:54.815Z,26.37
2019-04-20T16:26:39.791Z,26.21
2019-04-20T16:29:09.584Z,26.11
2019-04-20T16:31:40.415Z,26.09
2019-04-20T16:34:11.575Z,26.00
2019-04-20T16:36:41.405Z,25.90
2019-04-20T16:39:12.649Z,25.86
2019-04-20T16:41:42.488Z,25.83
2019-04-20T16:44:13.311Z,25.71
2019-04-20T16:46:43.010Z,25.58
2019-04-20T16:49:12.999Z,25.43
2019-04-20T16:51:43.049Z,25.32
2019-04-20T16:54:13.898Z,25.22
2019-04-20T16:56:44.534Z,25.10
2019-04-20T16:59:16.923Z,25.00
2019-04-20T17:01:46.623Z,24.91
2019-04-20T17:04:20.609Z,24.82
2019-04-20T17:07:05.948Z,24.77
2019-04-20T17:09:35.791Z,24.69
2019-04-20T17:12:05.878Z,24.57
2019-04-20T17:14:35.717Z,24.46
2019-04-20T17:17:05.590Z,24.38
2019-04-20T17:19:35.570Z,24.28
2019-04-20T17:22:05.921Z,24.19
2019-04-20T17:24:35.746Z,24.13
2019-04-20T17:27:16.997Z,24.05
2019-04-20T17:30:05.230Z,23.93
2019-04-20T17:32:37.164Z,23.84
2019-04-20T17:35:20.675Z,23.67
2019-04-20T17:37:44.643Z,23.53
2019-04-20T17:40:35.268Z,23.47
2019-04-20T17:42:53.163Z,23.40
2019-04-20T17:45:28.339Z,23.31
2019-04-20T17:48:01.866Z,23.17
2019-04-20T17:50:42.874Z,23.03
2019-04-20T17:53:07.218Z,22.89
2019-04-20T17:55:40.414Z,22.77
2019-04-20T17:58:13.753Z,22.68
2019-04-20T18:00:44.142Z,22.57
2019-04-20T18:03:54.040Z,22.51
2019-04-20T18:06:15.056Z,22.42
2019-04-20T18:08:45.392Z,22.27
2019-04-20T18:11:03.785Z,22.16
2019-04-20T18:13:29.095Z,22.06
2019-04-20T18:16:23.507Z,21.97
2019-04-20T18:18:55.303Z,21.92
2019-04-20T18:21:21.005Z,21.77
2019-04-20T18:23:51.849Z,21.73
2019-04-20T18:26:43.253Z,21.59
2019-04-20T18:29:10.335Z,21.46
2019-04-20T18:31:41.776Z,21.35
2019-04-20T18:34:18.848Z,21.29
2019-04-20T18:36:47.715Z,21.22
2019-04-20T18:39:25.635Z,21.13
2019-04-20T18:41:53.633Z,21.00
2019-04-20T18:44:27.686Z,20.87
2019-04-20T18:47:10.646Z,20.80
2019-04-20T18:49:36.106Z,20.71
2019-04-20T18:51:55.656Z,20.65
2019-04-20T18:54:28.581Z,20.61
2019-04-20T18:56:58.071Z,20.52
2019-04-20T18:59:33.394Z,20.43
2019-04-20T19:01:59.403Z,20.30
2019-04-20T19:04:30.133Z,20.22
2019-04-20T19:06:59.744Z,20.13
2019-04-20T19:09:32.020Z,20.04
2019-04-20T19:12:04.039Z,19.96
2019-04-20T19:14:50.925Z,19.88
2019-04-20T19:17:40.415Z,19.80
2019-04-20T19:20:02.348Z,19.81
2019-04-20T19:22:35.139Z,19.78
2019-04-20T19:25:03.869Z,19.66
2019-04-20T19:27:39.948Z,19.58
2019-04-20T19:30:21.443Z,19.51
2019-04-20T19:33:01.095Z,19.44
2019-04-20T19:35:28.132Z,19.39
2019-04-20T19:37:56.213Z,19.32
2019-04-20T19:40:29.019Z,19.23
2019-04-20T19:43:01.263Z,19.16
2019-04-20T19:45:43.933Z,19.10
2019-04-20T19:48:06.074Z,18.99
2019-04-20T19:50:41.391Z,18.93
2019-04-20T19:53:18.636Z,18.91
2019-04-20T19:55:43.009Z,18.86
2019-04-20T19:58:07.166Z,18.82
2019-04-20T20:00:51.758Z,18.75
2019-04-20T20:03:21.840Z,18.70
2019-04-20T20:05:54.283Z,18.65
2019-04-20T20:08:27.470Z,18.59
2019-04-20T20:10:58.229Z,18.53
2019-04-20T20:13:34.607Z,18.45
2019-04-20T20:16:06.067Z,18.41
2019-04-20T20:18:46.001Z,18.47
2019-04-20T20:21:17.596Z,18.49
2019-04-20T20:23:34.358Z,18.40
2019-04-20T20:26:07.217Z,18.35
2019-04-20T20:28:43.705Z,18.37
2019-04-20T20:31:20.082Z,18.34
2019-04-20T20:33:55.861Z,18.29
2019-04-20T20:36:15.587Z,18.25
2019-04-20T20:38:45.703Z,18.14
2019-04-20T20:41:20.592Z,18.11
2019-04-20T20:43:56.442Z,18.05
2019-04-20T20:46:27.205Z,18.03
2019-04-20T20:49:11.750Z,17.94
2019-04-20T20:51:44.034Z,17.91
2019-04-20T20:53:59.864Z,17.86
2019-04-20T20:56:29.167Z,17.86
2019-04-20T20:59:03.990Z,17.86
2019-04-20T21:01:28.210Z,17.80
2019-04-20T21:03:58.419Z,17.78
2019-04-20T21:06:28.718Z,17.74
2019-04-20T21:09:02.048Z,17.72
2019-04-20T21:11:34.806Z,17.69
2019-04-20T21:14:04.477Z,17.61
2019-04-20T21:16:40.173Z,17.54
2019-04-20T21:19:21.520Z,17.49
2019-04-20T21:21:45.418Z,17.46
2019-04-20T21:24:14.358Z,17.40
2019-04-20T21:26:44.129Z,17.34
2019-04-20T21:29:13.628Z,17.29
2019-04-20T21:31:52.509Z,17.21
2019-04-20T21:34:18.662Z,17.17
2019-04-20T21:36:47.278Z,17.11
2019-04-20T21:39:30.212Z,17.06
2019-04-20T21:41:56.869Z,17.00
2019-04-20T21:44:25.213Z,16.94
2019-04-20T21:46:54.463Z,16.89
2019-04-20T21:49:37.584Z,16.88
2019-04-20T21:52:00.701Z,16.82
2019-04-20T21:54:26.149Z,16.75
2019-04-20T21:57:01.596Z,16.74
2019-04-20T21:59:34.505Z,16.70
2019-04-20T22:02:07.778Z,16.69
2019-04-20T22:04:31.078Z,16.61
2019-04-20T22:07:02.433Z,16.61
2019-04-20T22:09:40.241Z,16.55
2019-04-20T22:12:03.670Z,16.54
2019-04-20T22:14:33.980Z,16.52
2019-04-20T22:17:05.410Z,16.49
2019-04-20T22:19:45.369Z,16.44
2019-04-20T22:22:18.307Z,16.36
2019-04-20T22:24:52.123Z,16.29
2019-04-20T22:27:15.876Z,16.26
2019-04-20T22:29:41.814Z,16.21
2019-04-20T22:32:13.790Z,16.20
2019-04-20T22:34:47.619Z,16.21
2019-04-20T22:37:22.072Z,16.14
2019-04-20T22:39:53.955Z,16.04
2019-04-20T22:42:22.264Z,16.03
2019-04-20T22:44:57.537Z,16.04
2019-04-20T22:47:29.335Z,16.02
2019-04-20T22:50:15.090Z,15.98
2019-04-20T22:52:42.648Z,16.00
2019-04-20T22:55:20.047Z,16.00
2019-04-20T22:57:47.050Z,15.98
2019-04-20T23:00:09.907Z,15.94
2019-04-20T23:02:33.869Z,15.88
2019-04-20T23:05:04.802Z,15.79
2019-04-20T23:07:34.784Z,15.79
2019-04-20T23:10:08.647Z,15.78
2019-04-20T23:12:40.246Z,15.77
2019-04-20T23:15:10.409Z,15.73
2019-04-20T23:17:44.999Z,15.69
2019-04-20T23:20:17.242Z,15.68
2019-04-20T23:22:47.371Z,15.60
2019-04-20T23:25:15.370Z,15.50
2019-04-20T23:27:45.797Z,15.48
2019-04-20T23:30:23.133Z,15.42
2019-04-20T23:32:47.271Z,15.43
2019-04-20T23:35:21.063Z,15.42
2019-04-20T23:37:48.499Z,15.40
2019-04-20T23:40:19.602Z,15.35
2019-04-20T23:42:53.782Z,15.31
2019-04-20T23:45:45.700Z,15.30
2019-04-20T23:48:14.330Z,15.34
2019-04-20T23:51:01.173Z,15.27
2019-04-20T23:53:32.248Z,15.24
2019-04-20T23:55:47.881Z,15.21
2019-04-20T23:58:18.137Z,15.20
